Wilson Heron — 9HJW9 — position and weather

sailwx.info

Track history (hours):
 
Tides and Currents Weather Stations Pressure Air Temp Water Temp Dewpoint Dewpoint Depression Visibility Wind Speed Wind Dir Waves Ship Positions

Wilson Heron

Last reported at 2016-May-25 05:30 UTC. Time now 2016-May-25 20:47 UTC.
Position N 40°46' E 029°27'.

Length 91 m; draft 3.9 m.

Type: Cargo ship. MMSI: 249075000.

Date/timePositionNaut miles runAvg speedWind from/ knotsBaromVisibWave heightAir tempDewpointWater temp
2016-May-25 05:30N 40°46' E 029°27'0 0.0
2016-May-24 22:18N 40°46' E 029°28'5 0.4
2016-May-24 09:32N 40°43' E 029°22'9 9.2
2016-May-24 08:34N 40°43' E 029°10'  
2016-May-21 22:12N 33°19' E 028°57'710.8
2016-May-21 21:33N 33°13' E 029°00'1111.3
2016-May-21 20:33N 33°03' E 029°07'1111.3
2016-May-21 19:33N 32°53' E 029°13'1211.2
2016-May-21 18:31N 32°42' E 029°19'1211.3
2016-May-21 17:28N 32°32' E 029°25'1211.1
2016-May-21 16:24N 32°21' E 029°31'910.7
2016-May-21 15:32N 32°13' E 029°36'1110.4
2016-May-21 14:30N 32°03' E 029°41'1010.6
2016-May-21 13:32N 31°54' E 029°47'1110.7
2016-May-21 12:33N 31°44' E 029°52'1110.6
2016-May-21 11:28N 31°34' E 029°58'  
Track history (hours):
 
Tides and Currents Weather Stations Pressure Air Temp Water Temp Dewpoint Dewpoint Depression Visibility Wind Speed Wind Dir Waves Ship Positions

Wilson Heron

Last reported at 2016-May-25 05:30 UTC. Time now 2016-May-25 20:47 UTC.
Position N 40°46' E 029°27'.

Length 91 m; draft 3.9 m.

Type: Cargo ship. MMSI: 249075000.

Date/timePositionNaut miles runAvg speedWind from/ knotsBaromVisibWave heightAir tempDewpointWater temp
2016-May-25 05:30N 40°46' E 029°27'0 0.0
2016-May-24 22:18N 40°46' E 029°28'5 0.4
2016-May-24 09:32N 40°43' E 029°22'9 9.2
2016-May-24 08:34N 40°43' E 029°10'  
2016-May-21 22:12N 33°19' E 028°57'710.8
2016-May-21 21:33N 33°13' E 029°00'1111.3
2016-May-21 20:33N 33°03' E 029°07'1111.3
2016-May-21 19:33N 32°53' E 029°13'1211.2
2016-May-21 18:31N 32°42' E 029°19'1211.3
2016-May-21 17:28N 32°32' E 029°25'1211.1
2016-May-21 16:24N 32°21' E 029°31'910.7
2016-May-21 15:32N 32°13' E 029°36'1110.4
2016-May-21 14:30N 32°03' E 029°41'1010.6
2016-May-21 13:32N 31°54' E 029°47'1110.7
2016-May-21 12:33N 31°44' E 029°52'1110.6
2016-May-21 11:28N 31°34' E 029°58'  

Dump ship's entire track history